Time;durP1;ratioP1;P1;durP2;ratioP2;P2;SDS_P1;SDS_P2;PMS_P1;PMS_P2;Temp;Humidity;BMP_temperature;BMP_pressure;BME280_temperature;BME280_humidity;BME280_pressure;Samples;Min_cycle;Max_cycle;Signal;HPM_P1;HPM_P2
2022/12/13 00:01:16;;;;;;;;;;;18.60;41.70;;;;;;7365516;19;19918;-59
2022/12/13 00:03:41;;;;;;;;;;;18.60;41.70;;;;;;7359420;19;21005;-60
2022/12/13 00:06:08;;;;;;;;;;;18.60;41.70;;;;;;7360395;19;19926;-54
2022/12/13 00:08:34;;;;;;;;;;;18.60;41.70;;;;;;7350621;19;19915;-56
2022/12/13 00:11:00;;;;;;;;;;;18.60;41.60;;;;;;7363161;19;20296;-55
2022/12/13 00:13:26;;;;;;;;;;;18.60;41.60;;;;;;7369604;19;19922;-59
2022/12/13 00:15:55;;;;;;;;;;;18.60;41.60;;;;;;7370415;19;20437;-58
2022/12/13 00:18:21;;;;;;;;;;;18.50;41.60;;;;;;7347056;19;19949;-59
2022/12/13 00:20:46;;;;;;;;;;;18.50;41.70;;;;;;7357896;19;19922;-59
2022/12/13 00:23:12;;;;;;;;;;;18.40;41.70;;;;;;7363619;19;20348;-59
2022/12/13 00:25:37;;;;;;;;;;;18.40;41.70;;;;;;7354154;19;20353;-59
2022/12/13 00:28:03;;;;;;;;;;;18.40;41.70;;;;;;7352867;19;20552;-59
2022/12/13 00:30:31;;;;;;;;;;;18.40;41.80;;;;;;7355137;19;20395;-55
2022/12/13 00:32:56;;;;;;;;;;;18.40;41.70;;;;;;7353465;19;19919;-60
2022/12/13 00:35:22;;;;;;;;;;;18.30;41.80;;;;;;7358431;19;19933;-58
2022/12/13 00:37:47;;;;;;;;;;;18.30;41.80;;;;;;7354676;19;19931;-60
2022/12/13 00:40:13;;;;;;;;;;;18.40;41.90;;;;;;7353330;19;19919;-59
2022/12/13 00:42:38;;;;;;;;;;;18.40;41.80;;;;;;7367262;19;19919;-55
2022/12/13 00:45:03;;;;;;;;;;;18.40;41.90;;;;;;7353120;19;19919;-57
2022/12/13 00:47:29;;;;;;;;;;;18.40;41.80;;;;;;7358546;19;19914;-56
2022/12/13 00:49:54;;;;;;;;;;;18.40;41.80;;;;;;7369730;19;20026;-60
2022/12/13 00:52:20;;;;;;;;;;;18.40;41.70;;;;;;7375802;19;19933;-57
2022/12/13 00:54:45;;;;;;;;;;;18.40;41.70;;;;;;7376513;19;19927;-60
2022/12/13 00:57:11;;;;;;;;;;;18.40;41.70;;;;;;7363302;19;19923;-56
2022/12/13 00:59:36;;;;;;;;;;;18.40;41.60;;;;;;7371953;19;19914;-59
2022/12/13 01:02:02;;;;;;;;;;;18.50;41.80;;;;;;7355333;19;20347;-59
2022/12/13 01:04:27;;;;;;;;;;;18.50;41.60;;;;;;7375877;19;19915;-58
2022/12/13 01:06:54;;;;;;;;;;;18.50;41.60;;;;;;7366409;19;20067;-58
2022/12/13 01:09:22;;;;;;;;;;;18.40;41.60;;;;;;7361944;19;19926;-59
2022/12/13 01:11:48;;;;;;;;;;;18.40;41.60;;;;;;7370467;19;19918;-57
2022/12/13 01:14:14;;;;;;;;;;;18.40;41.60;;;;;;7369684;19;19922;-59
2022/12/13 01:16:39;;;;;;;;;;;18.40;41.60;;;;;;7360610;19;19922;-56
2022/12/13 01:19:05;;;;;;;;;;;18.30;41.60;;;;;;7362050;19;19923;-55
2022/12/13 01:21:30;;;;;;;;;;;18.30;41.70;;;;;;7364927;19;19915;-57
2022/12/13 01:24:00;;;;;;;;;;;18.30;41.70;;;;;;7371341;19;19932;-59
2022/12/13 01:26:26;;;;;;;;;;;18.30;41.70;;;;;;7366151;19;19918;-59
2022/12/13 01:28:51;;;;;;;;;;;18.20;41.60;;;;;;7377947;19;20411;-60
2022/12/13 01:31:18;;;;;;;;;;;18.20;41.80;;;;;;7364841;19;20492;-58
2022/12/13 01:33:44;;;;;;;;;;;18.20;41.60;;;;;;7370639;19;19928;-57
2022/12/13 01:36:12;;;;;;;;;;;18.20;41.70;;;;;;7369586;19;19922;-57
2022/12/13 01:38:37;;;;;;;;;;;18.20;41.80;;;;;;7365458;19;20314;-59
2022/12/13 01:41:03;;;;;;;;;;;18.20;41.80;;;;;;7372346;19;19994;-59
2022/12/13 01:43:40;;;;;;;;;;;18.20;41.70;;;;;;7378518;19;20252;-56
2022/12/13 01:46:06;;;;;;;;;;;18.20;41.80;;;;;;7347573;19;20489;-56
2022/12/13 01:48:35;;;;;;;;;;;18.20;41.70;;;;;;7358577;19;19929;-58
2022/12/13 01:51:02;;;;;;;;;;;18.20;41.70;;;;;;7367103;19;19933;-55
2022/12/13 01:53:30;;;;;;;;;;;18.30;41.80;;;;;;7371162;19;19915;-59
2022/12/13 01:56:01;;;;;;;;;;;18.30;41.70;;;;;;7374978;19;19924;-58
2022/12/13 01:58:26;;;;;;;;;;;18.30;41.80;;;;;;7376021;19;19927;-59
2022/12/13 02:00:52;;;;;;;;;;;18.30;41.70;;;;;;7366831;19;19919;-57
2022/12/13 02:03:20;;;;;;;;;;;18.30;41.60;;;;;;7370312;19;19918;-59
2022/12/13 02:05:49;;;;;;;;;;;18.40;41.50;;;;;;7379196;19;19922;-59
2022/12/13 02:08:15;;;;;;;;;;;18.40;41.60;;;;;;7374910;19;19911;-57
2022/12/13 02:10:41;;;;;;;;;;;18.40;41.60;;;;;;7371604;19;19933;-57
2022/12/13 02:13:07;;;;;;;;;;;18.40;41.50;;;;;;7380054;19;19946;-60
2022/12/13 02:15:52;;;;;;;;;;;18.40;41.60;;;;;;7373097;19;20348;-59
2022/12/13 02:18:44;;;;;;;;;;;18.40;41.60;;;;;;7372577;19;19919;-55
2022/12/13 02:21:10;;;;;;;;;;;18.40;41.60;;;;;;7372549;19;19926;-59
2022/12/13 02:23:54;;;;;;;;;;;18.40;41.50;;;;;;7369394;19;19915;-57
2022/12/13 02:26:30;;;;;;;;;;;18.30;41.30;;;;;;7375311;19;19996;-60
2022/12/13 02:29:14;;;;;;;;;;;18.40;41.50;;;;;;7364599;19;19923;-59
2022/12/13 02:31:45;;;;;;;;;;;18.30;41.50;;;;;;7370948;19;20369;-58
2022/12/13 02:34:22;;;;;;;;;;;18.30;41.50;;;;;;7377627;19;19926;-60
2022/12/13 02:36:53;;;;;;;;;;;18.30;41.60;;;;;;7372984;19;19932;-58
2022/12/13 02:39:18;;;;;;;;;;;18.40;41.50;;;;;;7365927;19;19915;-56
2022/12/13 02:41:47;;;;;;;;;;;18.30;41.40;;;;;;7370058;19;19930;-57
2022/12/13 02:44:15;;;;;;;;;;;18.40;41.60;;;;;;7366184;19;19918;-58
2022/12/13 02:46:47;;;;;;;;;;;18.40;41.50;;;;;;7369378;19;19923;-59
2022/12/13 02:49:15;;;;;;;;;;;18.40;41.50;;;;;;7374188;19;19922;-59
2022/12/13 02:51:41;;;;;;;;;;;18.50;41.60;;;;;;7376755;19;19922;-56
2022/12/13 02:54:07;;;;;;;;;;;18.50;41.50;;;;;;7369078;19;19918;-60
2022/12/13 02:56:32;;;;;;;;;;;18.50;41.40;;;;;;7365523;19;20352;-59
2022/12/13 02:59:00;;;;;;;;;;;18.50;41.40;;;;;;7368325;19;20433;-56
2022/12/13 03:01:44;;;;;;;;;;;18.50;41.20;;;;;;7367305;19;19926;-59
2022/12/13 03:04:28;;;;;;;;;;;18.50;41.30;;;;;;7375571;19;19956;-59
2022/12/13 03:06:59;;;;;;;;;;;18.50;41.30;;;;;;7379132;19;19935;-57
2022/12/13 03:09:38;;;;;;;;;;;18.40;41.20;;;;;;7363659;19;19939;-59
2022/12/13 03:14:59;;;;;;;;;;;18.40;41.30;;;;;;7368778;19;19992;-57
2022/12/13 03:17:25;;;;;;;;;;;18.40;41.30;;;;;;7376340;19;19930;-58
2022/12/13 03:19:52;;;;;;;;;;;18.30;41.30;;;;;;7363344;19;19910;-58
2022/12/13 03:22:18;;;;;;;;;;;18.30;41.40;;;;;;7372822;19;20731;-57
2022/12/13 03:24:44;;;;;;;;;;;18.40;41.30;;;;;;7370893;19;20461;-57
2022/12/13 03:27:09;;;;;;;;;;;18.40;41.30;;;;;;7369537;19;19939;-59
2022/12/13 03:29:35;;;;;;;;;;;18.40;41.40;;;;;;7363388;19;19919;-59
2022/12/13 03:32:00;;;;;;;;;;;18.40;41.30;;;;;;7371471;19;19922;-59
2022/12/13 03:34:25;;;;;;;;;;;18.40;41.30;;;;;;7384082;19;19956;-59
2022/12/13 03:36:51;;;;;;;;;;;18.40;41.30;;;;;;7372316;19;20376;-58
2022/12/13 03:39:17;;;;;;;;;;;18.40;41.20;;;;;;7372919;19;19907;-59
2022/12/13 03:41:42;;;;;;;;;;;18.40;41.20;;;;;;7381771;19;19922;-59
2022/12/13 03:44:07;;;;;;;;;;;18.50;41.10;;;;;;7372233;19;19922;-54
2022/12/13 03:46:33;;;;;;;;;;;18.50;41.10;;;;;;7365593;19;19959;-58
2022/12/13 03:48:59;;;;;;;;;;;18.50;41.10;;;;;;7362715;19;19918;-57
2022/12/13 03:51:24;;;;;;;;;;;18.60;41.20;;;;;;7375315;19;20387;-56
2022/12/13 03:53:49;;;;;;;;;;;18.60;41.10;;;;;;7364825;19;19928;-57
2022/12/13 03:56:15;;;;;;;;;;;18.60;41.10;;;;;;7360794;19;19914;-58
2022/12/13 03:58:43;;;;;;;;;;;18.60;41.10;;;;;;7361233;19;19933;-57
2022/12/13 04:01:13;;;;;;;;;;;18.50;41.00;;;;;;7366314;19;19923;-59
2022/12/13 04:03:39;;;;;;;;;;;18.50;41.10;;;;;;7364929;19;19929;-58
2022/12/13 04:06:05;;;;;;;;;;;18.50;41.10;;;;;;7347264;19;19926;-54
2022/12/13 04:08:30;;;;;;;;;;;18.40;41.10;;;;;;7360356;19;19930;-57
2022/12/13 04:10:56;;;;;;;;;;;18.40;41.10;;;;;;7359589;19;22075;-59
2022/12/13 04:13:33;;;;;;;;;;;18.40;41.10;;;;;;7352795;19;19933;-59
2022/12/13 04:15:59;;;;;;;;;;;18.40;41.20;;;;;;7368020;19;19960;-59
2022/12/13 04:18:25;;;;;;;;;;;18.30;41.10;;;;;;7365480;19;19944;-59
2022/12/13 04:20:50;;;;;;;;;;;18.30;41.10;;;;;;7361190;19;19995;-58
2022/12/13 04:23:15;;;;;;;;;;;18.30;41.10;;;;;;7358987;19;19940;-59
2022/12/13 04:25:41;;;;;;;;;;;18.30;41.10;;;;;;7379516;19;19919;-58
2022/12/13 04:28:07;;;;;;;;;;;18.20;41.10;;;;;;7379010;19;19919;-59
2022/12/13 04:30:33;;;;;;;;;;;18.20;41.10;;;;;;7373746;19;19911;-58
2022/12/13 04:32:58;;;;;;;;;;;18.20;41.20;;;;;;7379507;19;19915;-58
2022/12/13 04:35:24;;;;;;;;;;;18.20;41.30;;;;;;7363544;19;19915;-59
2022/12/13 04:37:50;;;;;;;;;;;18.10;41.30;;;;;;7378987;19;20560;-52
2022/12/13 04:40:15;;;;;;;;;;;18.10;41.20;;;;;;7363337;19;19919;-59
2022/12/13 04:42:41;;;;;;;;;;;18.10;41.30;;;;;;7374695;19;19928;-55
2022/12/13 04:45:07;;;;;;;;;;;18.20;41.30;;;;;;7364415;19;19927;-59
2022/12/13 04:47:32;;;;;;;;;;;18.20;41.30;;;;;;7335135;19;19924;-60
2022/12/13 04:49:58;;;;;;;;;;;18.20;41.30;;;;;;7347804;19;20329;-58
2022/12/13 04:52:23;;;;;;;;;;;18.30;41.10;;;;;;7361534;19;19919;-59
2022/12/13 04:54:49;;;;;;;;;;;18.40;41.10;;;;;;7367400;19;20283;-57
2022/12/13 04:57:14;;;;;;;;;;;18.40;41.10;;;;;;7373632;19;20574;-59
2022/12/13 04:59:40;;;;;;;;;;;18.40;41.00;;;;;;7364828;19;19915;-59
2022/12/13 05:02:06;;;;;;;;;;;18.50;41.10;;;;;;7375298;19;19932;-58
2022/12/13 05:04:32;;;;;;;;;;;18.50;41.00;;;;;;7368748;19;20008;-59
2022/12/13 05:06:57;;;;;;;;;;;18.50;41.00;;;;;;7381332;19;19923;-59
2022/12/13 05:09:23;;;;;;;;;;;18.50;41.10;;;;;;7373631;19;19988;-59
2022/12/13 05:11:49;;;;;;;;;;;18.60;41.10;;;;;;7365942;19;19997;-59
2022/12/13 05:14:15;;;;;;;;;;;18.50;41.10;;;;;;7360659;19;20424;-58
2022/12/13 05:16:40;;;;;;;;;;;18.50;41.10;;;;;;7362196;19;19930;-52
2022/12/13 05:19:05;;;;;;;;;;;18.50;41.30;;;;;;7372586;19;19934;-57
2022/12/13 05:21:33;;;;;;;;;;;18.50;41.30;;;;;;7364241;19;19914;-59
2022/12/13 05:23:59;;;;;;;;;;;18.50;41.30;;;;;;7380190;19;19926;-58
2022/12/13 05:26:25;;;;;;;;;;;18.40;41.30;;;;;;7377086;19;19915;-58
2022/12/13 05:28:50;;;;;;;;;;;18.40;41.90;;;;;;7380278;19;19915;-58
2022/12/13 05:31:16;;;;;;;;;;;18.40;41.30;;;;;;7376475;19;19915;-59
2022/12/13 05:33:41;;;;;;;;;;;18.40;41.30;;;;;;7379349;19;19927;-56
2022/12/13 05:36:07;;;;;;;;;;;18.40;41.30;;;;;;7376336;19;20356;-59
2022/12/13 05:38:32;;;;;;;;;;;18.40;41.30;;;;;;7376811;19;20611;-59
2022/12/13 05:40:58;;;;;;;;;;;18.40;41.20;;;;;;7373325;19;19915;-56
2022/12/13 05:43:23;;;;;;;;;;;18.40;41.20;;;;;;7384658;19;19918;-60
2022/12/13 05:45:49;;;;;;;;;;;18.40;41.80;;;;;;7373992;19;19911;-58
2022/12/13 05:48:15;;;;;;;;;;;18.40;41.10;;;;;;7372620;19;19919;-59
2022/12/13 05:50:40;;;;;;;;;;;18.50;41.20;;;;;;7376082;19;19930;-55
2022/12/13 05:53:06;;;;;;;;;;;18.50;41.20;;;;;;7361250;19;19919;-58
2022/12/13 05:55:31;;;;;;;;;;;18.50;41.10;;;;;;7348364;19;19922;-58
2022/12/13 05:57:58;;;;;;;;;;;18.60;41.40;;;;;;7339022;19;19944;-57
2022/12/13 06:00:23;;;;;;;;;;;18.60;41.40;;;;;;7338328;19;20009;-54
2022/12/13 06:02:49;;;;;;;;;;;18.70;41.30;;;;;;7332013;19;20232;-58
2022/12/13 06:05:14;;;;;;;;;;;18.70;41.30;;;;;;7364247;19;20701;-55
2022/12/13 06:07:40;;;;;;;;;;;18.70;41.10;;;;;;7349879;19;20512;-53
2022/12/13 06:10:06;;;;;;;;;;;18.70;41.30;;;;;;7349353;19;19911;-58
2022/12/13 06:12:33;;;;;;;;;;;18.70;41.30;;;;;;7352902;19;19929;-56
2022/12/13 06:14:58;;;;;;;;;;;18.70;41.50;;;;;;7337767;19;19971;-55
2022/12/13 06:17:24;;;;;;;;;;;18.70;41.30;;;;;;7346438;19;19950;-59
2022/12/13 06:19:50;;;;;;;;;;;18.70;41.30;;;;;;7366278;19;20276;-58
2022/12/13 06:22:16;;;;;;;;;;;18.70;41.30;;;;;;7355716;19;20508;-59
2022/12/13 06:24:41;;;;;;;;;;;18.70;41.20;;;;;;7361841;19;19923;-58
2022/12/13 06:27:07;;;;;;;;;;;18.70;41.20;;;;;;7362184;19;25801;-56
2022/12/13 06:29:32;;;;;;;;;;;18.60;41.20;;;;;;7354218;19;20545;-56
2022/12/13 06:31:59;;;;;;;;;;;18.60;41.30;;;;;;7346325;19;19935;-57
2022/12/13 06:34:25;;;;;;;;;;;18.60;41.20;;;;;;7360357;19;19930;-59
2022/12/13 06:36:50;;;;;;;;;;;18.60;41.20;;;;;;7332473;19;19918;-62
2022/12/13 06:39:16;;;;;;;;;;;18.70;42.60;;;;;;7351769;19;19922;-63
2022/12/13 06:41:41;;;;;;;;;;;18.60;42.20;;;;;;7361233;19;20636;-63
2022/12/13 06:44:07;;;;;;;;;;;18.60;42.00;;;;;;7341824;19;21313;-62
2022/12/13 06:46:33;;;;;;;;;;;18.70;42.00;;;;;;7346583;19;19931;-63
2022/12/13 06:48:58;;;;;;;;;;;18.70;41.90;;;;;;7355860;19;19918;-63
2022/12/13 06:51:24;;;;;;;;;;;18.70;41.90;;;;;;7355918;19;20356;-63
2022/12/13 06:53:49;;;;;;;;;;;18.70;41.70;;;;;;7350243;19;19924;-61
2022/12/13 06:56:14;;;;;;;;;;;18.70;41.30;;;;;;7362122;19;19911;-63
2022/12/13 06:58:41;;;;;;;;;;;18.70;41.20;;;;;;7365495;19;19972;-61
2022/12/13 07:01:08;;;;;;;;;;;18.70;41.30;;;;;;7362282;19;20381;-63
2022/12/13 07:03:34;;;;;;;;;;;18.70;41.20;;;;;;7359883;19;19922;-63
2022/12/13 07:06:03;;;;;;;;;;;18.60;41.30;;;;;;7355980;19;19923;-60
2022/12/13 07:08:28;;;;;;;;;;;18.60;41.40;;;;;;7378006;19;19926;-51
2022/12/13 07:10:54;;;;;;;;;;;18.60;41.50;;;;;;7373890;19;19926;-61
2022/12/13 07:13:20;;;;;;;;;;;18.50;41.40;;;;;;7373855;19;20283;-63
2022/12/13 07:15:46;;;;;;;;;;;18.50;41.50;;;;;;7376126;19;19922;-63
2022/12/13 07:18:11;;;;;;;;;;;18.40;41.40;;;;;;7373323;19;20023;-62
2022/12/13 07:20:40;;;;;;;;;;;18.40;41.50;;;;;;7354984;19;19978;-62
2022/12/13 07:23:06;;;;;;;;;;;18.40;41.50;;;;;;7374555;19;19974;-62
2022/12/13 07:25:31;;;;;;;;;;;18.40;41.60;;;;;;7380210;19;19993;-62
2022/12/13 07:28:01;;;;;;;;;;;18.30;41.60;;;;;;7366292;19;19927;-63
2022/12/13 07:30:27;;;;;;;;;;;18.30;41.60;;;;;;7364306;19;19919;-62
2022/12/13 07:32:52;;;;;;;;;;;18.30;41.70;;;;;;7378500;19;19947;-63
2022/12/13 07:35:18;;;;;;;;;;;18.30;41.70;;;;;;7371891;19;19930;-62
2022/12/13 07:37:43;;;;;;;;;;;18.20;41.60;;;;;;7379716;19;20038;-62
2022/12/13 07:40:09;;;;;;;;;;;18.20;41.60;;;;;;7351166;19;19952;-62
2022/12/13 07:42:34;;;;;;;;;;;18.20;41.60;;;;;;7361574;19;19926;-62
2022/12/13 07:45:00;;;;;;;;;;;18.20;41.60;;;;;;7363206;19;19922;-62
2022/12/13 07:47:29;;;;;;;;;;;18.20;41.80;;;;;;7375057;19;19914;-62
2022/12/13 07:49:55;;;;;;;;;;;18.20;41.90;;;;;;7374688;19;20336;-62
2022/12/13 07:52:20;;;;;;;;;;;18.20;41.80;;;;;;7376726;19;19998;-62
2022/12/13 07:54:46;;;;;;;;;;;18.20;41.70;;;;;;7376187;19;20251;-62
2022/12/13 07:57:12;;;;;;;;;;;18.20;41.70;;;;;;7360343;19;19918;-62
2022/12/13 07:59:37;;;;;;;;;;;18.20;41.80;;;;;;7372650;19;19930;-62
2022/12/13 08:02:05;;;;;;;;;;;18.20;41.80;;;;;;7372363;19;19933;-62
2022/12/13 08:04:30;;;;;;;;;;;18.20;41.70;;;;;;7364604;19;19933;-61
2022/12/13 08:06:56;;;;;;;;;;;18.20;41.80;;;;;;7369591;19;19923;-62
2022/12/13 08:09:22;;;;;;;;;;;18.20;42.20;;;;;;7372353;19;19939;-62
2022/12/13 08:11:47;;;;;;;;;;;18.20;41.60;;;;;;7367295;19;20391;-62
2022/12/13 08:14:13;;;;;;;;;;;18.10;41.70;;;;;;7372734;19;19923;-63
2022/12/13 08:16:38;;;;;;;;;;;18.10;41.80;;;;;;7367178;19;20356;-62
2022/12/13 08:19:04;;;;;;;;;;;18.10;41.70;;;;;;7368400;19;19915;-61
2022/12/13 08:21:34;;;;;;;;;;;18.10;41.70;;;;;;7366852;19;21057;-62
2022/12/13 08:23:59;;;;;;;;;;;18.10;41.70;;;;;;7370572;19;19919;-62
2022/12/13 08:26:25;;;;;;;;;;;18.10;41.70;;;;;;7374939;19;19925;-63
2022/12/13 08:28:50;;;;;;;;;;;18.20;41.60;;;;;;7371641;19;20011;-61
2022/12/13 08:31:15;;;;;;;;;;;18.20;41.50;;;;;;7372642;19;19930;-63
2022/12/13 08:33:44;;;;;;;;;;;18.20;41.50;;;;;;7374612;19;19923;-62
2022/12/13 08:36:11;;;;;;;;;;;18.30;41.50;;;;;;7372950;19;19930;-63
2022/12/13 08:38:36;;;;;;;;;;;18.30;41.40;;;;;;7371140;19;19919;-61
2022/12/13 08:41:02;;;;;;;;;;;18.30;41.40;;;;;;7371513;19;19918;-63
2022/12/13 08:43:28;;;;;;;;;;;18.40;41.30;;;;;;7366560;19;19978;-63
2022/12/13 08:45:53;;;;;;;;;;;18.40;41.30;;;;;;7363027;19;20514;-63
2022/12/13 08:48:18;;;;;;;;;;;18.40;41.10;;;;;;7369882;19;19911;-63
2022/12/13 08:50:44;;;;;;;;;;;18.40;41.10;;;;;;7369626;19;19915;-63
2022/12/13 08:53:09;;;;;;;;;;;18.40;41.10;;;;;;7379463;19;19919;-62
2022/12/13 08:55:35;;;;;;;;;;;18.50;41.10;;;;;;7373573;19;19915;-62
2022/12/13 08:58:07;;;;;;;;;;;18.50;41.10;;;;;;7374971;19;20032;-63
2022/12/13 09:00:32;;;;;;;;;;;18.50;41.10;;;;;;7374015;19;19923;-63
2022/12/13 09:02:58;;;;;;;;;;;18.50;41.10;;;;;;7370927;19;19918;-62
2022/12/13 09:05:23;;;;;;;;;;;18.60;41.10;;;;;;7369149;19;20755;-62
2022/12/13 09:07:53;;;;;;;;;;;18.60;41.10;;;;;;7374064;19;20309;-62
2022/12/13 09:10:19;;;;;;;;;;;18.60;41.00;;;;;;7384186;19;20005;-63
2022/12/13 09:12:45;;;;;;;;;;;18.60;41.00;;;;;;7378808;19;20647;-62
2022/12/13 09:15:11;;;;;;;;;;;18.60;40.90;;;;;;7381078;19;19952;-62
2022/12/13 09:17:36;;;;;;;;;;;18.60;40.80;;;;;;7375894;19;19923;-62
2022/12/13 09:20:02;;;;;;;;;;;18.60;40.90;;;;;;7376842;19;20264;-62
2022/12/13 09:22:28;;;;;;;;;;;18.60;40.80;;;;;;7377919;19;19922;-62
2022/12/13 09:24:54;;;;;;;;;;;18.60;40.90;;;;;;7366367;19;21919;-62
2022/12/13 09:27:20;;;;;;;;;;;18.70;40.80;;;;;;7379284;19;19926;-63
2022/12/13 09:29:46;;;;;;;;;;;18.70;40.80;;;;;;7382830;19;19919;-63
2022/12/13 09:32:11;;;;;;;;;;;18.60;40.70;;;;;;7387420;19;19931;-62
2022/12/13 09:34:37;;;;;;;;;;;18.70;40.70;;;;;;7376818;19;19947;-62
2022/12/13 09:37:02;;;;;;;;;;;18.70;40.60;;;;;;7380715;19;19975;-62
2022/12/13 09:39:28;;;;;;;;;;;18.70;40.60;;;;;;7381806;19;19922;-62
2022/12/13 09:41:55;;;;;;;;;;;18.70;40.60;;;;;;7383685;19;19915;-62
2022/12/13 09:44:44;;;;;;;;;;;18.70;40.60;;;;;;7386264;19;19954;-63
2022/12/13 09:47:12;;;;;;;;;;;18.70;40.50;;;;;;7381663;19;19911;-62
2022/12/13 09:49:39;;;;;;;;;;;18.70;40.50;;;;;;7379110;19;19929;-62
2022/12/13 09:52:06;;;;;;;;;;;18.70;40.40;;;;;;7378547;19;20412;-62
2022/12/13 09:54:31;;;;;;;;;;;18.70;40.50;;;;;;7377712;19;20344;-62
2022/12/13 09:56:57;;;;;;;;;;;18.70;40.40;;;;;;7369913;19;19915;-62
2022/12/13 09:59:27;;;;;;;;;;;18.70;40.50;;;;;;7362995;19;19970;-61
2022/12/13 10:01:53;;;;;;;;;;;18.70;40.50;;;;;;7361280;19;20257;-62
2022/12/13 10:04:19;;;;;;;;;;;18.70;40.50;;;;;;7368668;19;19922;-63
2022/12/13 10:06:44;;;;;;;;;;;18.70;40.40;;;;;;7380700;19;19914;-62
2022/12/13 10:09:12;;;;;;;;;;;18.70;40.40;;;;;;7365182;19;19923;-61
2022/12/13 10:11:45;;;;;;;;;;;18.70;40.50;;;;;;7374841;19;20628;-61
2022/12/13 10:14:17;;;;;;;;;;;18.70;40.50;;;;;;7357673;19;19923;-61
2022/12/13 10:16:50;;;;;;;;;;;18.70;40.60;;;;;;7366962;19;19929;-62
2022/12/13 10:19:23;;;;;;;;;;;18.60;41.10;;;;;;7370873;19;20262;-62
2022/12/13 10:21:50;;;;;;;;;;;18.60;40.60;;;;;;7377542;19;19950;-62
2022/12/13 10:24:18;;;;;;;;;;;18.60;40.60;;;;;;7376289;19;19923;-62
2022/12/13 10:26:43;;;;;;;;;;;18.60;40.60;;;;;;7373072;19;19914;-61
2022/12/13 10:29:09;;;;;;;;;;;18.60;40.50;;;;;;7375364;19;19910;-62
2022/12/13 10:31:42;;;;;;;;;;;18.50;40.60;;;;;;7370121;19;21139;-62
2022/12/13 10:34:21;;;;;;;;;;;18.50;40.60;;;;;;7374530;19;19922;-62
2022/12/13 10:36:47;;;;;;;;;;;18.50;40.70;;;;;;7378615;19;19944;-62
2022/12/13 10:39:17;;;;;;;;;;;18.50;40.80;;;;;;7383313;19;19919;-62
2022/12/13 10:41:43;;;;;;;;;;;18.50;40.70;;;;;;7373960;19;19929;-61
2022/12/13 10:44:17;;;;;;;;;;;18.40;40.60;;;;;;7379317;19;19923;-62
2022/12/13 10:46:47;;;;;;;;;;;18.40;40.60;;;;;;7371541;19;19931;-62
2022/12/13 10:49:33;;;;;;;;;;;18.40;40.80;;;;;;7365140;19;19918;-62
2022/12/13 10:51:59;;;;;;;;;;;18.40;40.80;;;;;;7378947;19;19923;-61
2022/12/13 10:54:29;;;;;;;;;;;18.40;40.80;;;;;;7380790;19;19926;-62
2022/12/13 10:56:59;;;;;;;;;;;18.40;40.80;;;;;;7380272;19;19925;-62
2022/12/13 10:59:30;;;;;;;;;;;18.40;40.70;;;;;;7373640;19;19915;-62
2022/12/13 11:01:56;;;;;;;;;;;18.40;40.70;;;;;;7368992;19;20308;-61
2022/12/13 11:04:32;;;;;;;;;;;18.40;40.60;;;;;;7374242;19;19931;-62
2022/12/13 11:06:59;;;;;;;;;;;18.50;40.60;;;;;;7376208;19;19944;-61
2022/12/13 11:09:32;;;;;;;;;;;18.50;40.60;;;;;;7378780;19;19923;-62
2022/12/13 11:12:02;;;;;;;;;;;18.50;40.50;;;;;;7381778;19;20398;-62
2022/12/13 11:14:32;;;;;;;;;;;18.50;40.50;;;;;;7355168;19;19911;-61
2022/12/13 11:17:09;;;;;;;;;;;18.60;40.50;;;;;;7364188;19;20059;-62
2022/12/13 11:19:37;;;;;;;;;;;18.60;40.50;;;;;;7369335;19;19991;-62
2022/12/13 11:22:03;;;;;;;;;;;18.60;40.40;;;;;;7378291;19;19943;-62
2022/12/13 11:24:34;;;;;;;;;;;18.70;40.50;;;;;;7377268;19;20694;-60
2022/12/13 11:27:19;;;;;;;;;;;18.70;40.50;;;;;;7344513;19;19914;-60
2022/12/13 11:29:59;;;;;;;;;;;18.70;40.40;;;;;;7368399;19;20299;-61
2022/12/13 11:32:32;;;;;;;;;;;18.70;40.30;;;;;;7368989;19;19922;-61
2022/12/13 11:35:13;;;;;;;;;;;18.70;40.30;;;;;;7373671;19;20350;-62
2022/12/13 11:37:44;;;;;;;;;;;18.70;40.20;;;;;;7364293;19;19919;-61
2022/12/13 11:40:14;;;;;;;;;;;18.70;40.20;;;;;;7371175;19;19919;-62
2022/12/13 11:42:58;;;;;;;;;;;18.70;40.40;;;;;;7350124;19;19922;-61
2022/12/13 11:45:27;;;;;;;;;;;18.60;40.20;;;;;;7367444;19;20018;-62
2022/12/13 11:48:07;;;;;;;;;;;18.60;40.30;;;;;;7367598;19;19919;-61
2022/12/13 11:50:40;;;;;;;;;;;18.60;40.40;;;;;;7366012;19;19914;-62
2022/12/13 11:53:26;;;;;;;;;;;18.60;40.30;;;;;;7350055;19;20547;-62
2022/12/13 11:56:15;;;;;;;;;;;18.60;41.10;;;;;;7365203;19;19930;-62
2022/12/13 11:58:49;;;;;;;;;;;18.50;40.40;;;;;;7357931;19;19926;-60
2022/12/13 12:01:16;;;;;;;;;;;18.50;40.50;;;;;;7352936;19;19956;-61
2022/12/13 12:03:50;;;;;;;;;;;18.40;40.50;;;;;;7367726;19;20563;-61
2022/12/13 12:06:27;;;;;;;;;;;18.40;40.80;;;;;;7367879;19;20793;-60
2022/12/13 12:08:58;;;;;;;;;;;18.40;40.60;;;;;;7366789;19;19925;-61
2022/12/13 12:11:42;;;;;;;;;;;18.40;40.60;;;;;;7365529;19;19915;-61
2022/12/13 12:14:13;;;;;;;;;;;18.40;40.80;;;;;;7369983;19;19991;-60
2022/12/13 12:16:44;;;;;;;;;;;18.30;40.70;;;;;;7372719;19;19919;-61
2022/12/13 12:19:21;;;;;;;;;;;18.30;40.80;;;;;;7366442;19;19985;-60
2022/12/13 12:21:51;;;;;;;;;;;18.30;40.90;;;;;;7352955;19;19927;-61
2022/12/13 12:24:29;;;;;;;;;;;18.30;40.90;;;;;;7364400;19;20002;-61
2022/12/13 12:27:05;;;;;;;;;;;18.30;40.80;;;;;;7363866;19;19943;-60
2022/12/13 12:29:48;;;;;;;;;;;18.30;40.80;;;;;;7369031;19;19915;-59
2022/12/13 12:32:16;;;;;;;;;;;18.40;40.80;;;;;;7362741;19;19919;-60
2022/12/13 12:35:01;;;;;;;;;;;18.40;40.90;;;;;;7362968;19;19922;-61
2022/12/13 12:37:43;;;;;;;;;;;18.40;40.90;;;;;;7372653;19;19939;-60
2022/12/13 12:40:31;;;;;;;;;;;18.40;40.70;;;;;;7366238;19;19922;-61
2022/12/13 12:43:15;;;;;;;;;;;18.50;40.90;;;;;;7360685;19;19946;-60
2022/12/13 12:45:59;;;;;;;;;;;18.50;40.70;;;;;;7353594;19;19914;-58
2022/12/13 12:48:41;;;;;;;;;;;18.60;40.80;;;;;;7378906;19;19940;-61
2022/12/13 12:51:13;;;;;;;;;;;18.60;40.80;;;;;;7372816;19;19926;-61
2022/12/13 12:54:03;;;;;;;;;;;18.60;40.70;;;;;;7382413;19;19919;-60
2022/12/13 12:56:41;;;;;;;;;;;18.60;40.80;;;;;;7362155;19;19914;-60
2022/12/13 12:59:21;;;;;;;;;;;18.70;40.80;;;;;;7330377;19;20274;-62
2022/12/13 13:01:55;;;;;;;;;;;18.80;41.30;;;;;;7368192;19;20019;-63
2022/12/13 13:04:24;;;;;;;;;;;18.90;41.30;;;;;;7363705;19;20608;-60
2022/12/13 13:06:52;;;;;;;;;;;19.00;41.20;;;;;;7376160;19;20287;-61
2022/12/13 13:09:18;;;;;;;;;;;19.00;41.10;;;;;;7382349;19;20578;-63
2022/12/13 13:11:45;;;;;;;;;;;19.00;40.90;;;;;;7368169;19;20770;-63
2022/12/13 13:14:25;;;;;;;;;;;19.10;40.80;;;;;;7372087;19;19914;-61
2022/12/13 13:16:51;;;;;;;;;;;19.10;40.70;;;;;;7382012;19;20551;-63
2022/12/13 13:19:16;;;;;;;;;;;19.10;40.70;;;;;;7377948;19;19939;-62
2022/12/13 13:21:49;;;;;;;;;;;19.10;40.60;;;;;;7378478;19;20331;-63
2022/12/13 13:24:22;;;;;;;;;;;19.10;40.60;;;;;;7376198;19;24179;-61
2022/12/13 13:26:58;;;;;;;;;;;19.10;40.60;;;;;;7374228;19;20848;-63
2022/12/13 13:29:23;;;;;;;;;;;19.10;40.50;;;;;;7374869;19;20700;-63
2022/12/13 13:32:20;;;;;;;;;;;19.00;40.50;;;;;;7356539;19;20004;-62
2022/12/13 13:34:47;;;;;;;;;;;19.00;41.20;;;;;;7360425;19;19919;-63
2022/12/13 13:37:15;;;;;;;;;;;18.90;40.20;;;;;;7375243;19;19911;-63
2022/12/13 13:39:58;;;;;;;;;;;18.90;40.30;;;;;;7373769;19;19923;-61
2022/12/13 13:42:25;;;;;;;;;;;18.80;40.40;;;;;;7375376;19;19927;-63
2022/12/13 13:44:50;;;;;;;;;;;18.80;40.50;;;;;;7375871;19;19926;-62
2022/12/13 13:47:16;;;;;;;;;;;18.70;40.60;;;;;;7385692;19;19922;-63
2022/12/13 13:49:50;;;;;;;;;;;18.70;40.70;;;;;;7373335;19;20651;-59
2022/12/13 13:52:18;;;;;;;;;;;18.60;40.90;;;;;;7373250;19;19925;-63
2022/12/13 13:55:15;;;;;;;;;;;18.60;41.50;;;;;;7378138;19;19927;-61
2022/12/13 13:57:40;;;;;;;;;;;18.50;41.00;;;;;;7376627;19;19915;-60
2022/12/13 14:00:12;;;;;;;;;;;18.50;41.00;;;;;;7375682;19;19923;-62
2022/12/13 14:02:57;;;;;;;;;;;18.40;41.00;;;;;;7365276;19;19922;-63
2022/12/13 14:05:25;;;;;;;;;;;18.40;41.10;;;;;;7381005;19;19972;-63
2022/12/13 14:08:12;;;;;;;;;;;18.40;41.10;;;;;;7379092;19;19919;-62
2022/12/13 14:10:47;;;;;;;;;;;18.40;41.10;;;;;;7369408;19;19986;-62
2022/12/13 14:13:31;;;;;;;;;;;18.30;41.10;;;;;;7354346;19;20312;-64
2022/12/13 14:16:15;;;;;;;;;;;18.30;41.20;;;;;;7358071;19;19955;-60
2022/12/13 14:19:14;;;;;;;;;;;18.30;41.10;;;;;;7376113;19;19950;-61
2022/12/13 14:21:43;;;;;;;;;;;18.30;41.20;;;;;;7379058;19;19915;-63
2022/12/13 14:24:26;;;;;;;;;;;18.30;41.30;;;;;;7376245;19;19919;-63
2022/12/13 14:27:10;;;;;;;;;;;18.30;41.30;;;;;;7378592;19;21140;-63
2022/12/13 14:29:40;;;;;;;;;;;18.30;41.40;;;;;;7368543;19;19935;-63